createdAt,value
2023-07-04T00:01:11.067Z,27.95
2023-07-04T00:03:40.522Z,28.25
2023-07-04T00:06:08.616Z,25.95
2023-07-04T00:08:36.203Z,25.33
2023-07-04T00:11:07.638Z,25.90
2023-07-04T00:13:35.815Z,25.55
2023-07-04T00:16:06.734Z,24.73
2023-07-04T00:18:35.530Z,26.40
2023-07-04T00:21:05.305Z,25.83
2023-07-04T00:23:36.310Z,27.75
2023-07-04T00:26:05.753Z,25.05
2023-07-04T00:28:34.582Z,21.92
2023-07-04T00:31:04.597Z,21.50
2023-07-04T00:33:31.985Z,20.13
2023-07-04T00:36:06.478Z,19.38
2023-07-04T00:38:34.944Z,18.83
2023-07-04T00:41:03.022Z,17.77
2023-07-04T00:43:46.652Z,17.23
2023-07-04T00:46:16.486Z,17.63
2023-07-04T00:48:46.293Z,17.13
2023-07-04T00:51:23.178Z,16.42
2023-07-04T00:53:54.438Z,16.85
2023-07-04T00:56:26.928Z,16.10
2023-07-04T00:58:58.084Z,15.93
2023-07-04T01:01:27.334Z,17.08
2023-07-04T01:03:55.803Z,15.32
2023-07-04T01:06:36.805Z,15.77
2023-07-04T01:09:06.751Z,15.77
2023-07-04T01:11:36.084Z,16.65
2023-07-04T01:14:06.402Z,16.60
2023-07-04T01:16:33.836Z,15.93
2023-07-04T01:19:01.389Z,16.60
2023-07-04T01:21:28.933Z,16.77
2023-07-04T01:24:11.950Z,16.77
2023-07-04T01:26:41.052Z,17.17
2023-07-04T01:29:11.128Z,18.85
2023-07-04T01:31:38.402Z,19.02
2023-07-04T01:34:06.739Z,18.80
2023-07-04T01:36:35.578Z,18.42
2023-07-04T01:39:03.584Z,20.13
2023-07-04T01:41:33.346Z,20.17
2023-07-04T01:44:05.634Z,18.85
2023-07-04T01:46:33.942Z,18.70
2023-07-04T01:49:01.259Z,20.92
2023-07-04T01:51:40.232Z,21.70
2023-07-04T01:54:08.324Z,22.10
2023-07-04T01:56:38.365Z,22.70
2023-07-04T01:59:06.102Z,21.67
2023-07-04T02:01:33.480Z,21.70
2023-07-04T02:04:00.689Z,20.63
2023-07-04T02:06:28.266Z,21.02
2023-07-04T02:08:59.482Z,20.20
2023-07-04T02:11:26.841Z,20.35
2023-07-04T02:13:54.618Z,19.77
2023-07-04T02:16:22.184Z,20.77
2023-07-04T02:18:49.767Z,20.55
2023-07-04T02:21:16.937Z,20.92
2023-07-04T02:23:45.255Z,20.23
2023-07-04T02:26:13.662Z,21.42
2023-07-04T02:28:41.308Z,21.83
2023-07-04T02:31:08.678Z,21.42
2023-07-04T02:33:36.652Z,21.77
2023-07-04T02:36:05.334Z,21.23
2023-07-04T02:38:33.060Z,19.77
2023-07-04T02:41:00.285Z,21.27
2023-07-04T02:43:28.204Z,21.30
2023-07-04T02:45:55.998Z,22.08
2023-07-04T02:48:25.411Z,22.02
2023-07-04T02:50:53.377Z,21.67
2023-07-04T02:53:23.320Z,21.58
2023-07-04T02:55:51.589Z,21.58
2023-07-04T02:58:21.039Z,21.83
2023-07-04T03:00:49.475Z,21.08
2023-07-04T03:03:18.520Z,21.10
2023-07-04T03:05:47.156Z,22.67
2023-07-04T03:08:14.873Z,24.35
2023-07-04T03:10:46.905Z,24.83
2023-07-04T03:13:16.255Z,23.90
2023-07-04T03:15:44.082Z,21.25
2023-07-04T03:18:12.256Z,20.95
2023-07-04T03:20:41.029Z,20.85
2023-07-04T03:23:09.275Z,19.65
2023-07-04T03:25:37.962Z,20.52
2023-07-04T03:28:05.725Z,19.27
2023-07-04T03:30:33.011Z,18.70
2023-07-04T03:33:07.022Z,18.03
2023-07-04T03:35:53.282Z,18.58
2023-07-04T03:38:25.925Z,19.48
2023-07-04T03:40:54.109Z,18.70
2023-07-04T03:43:23.450Z,18.45
2023-07-04T03:45:50.587Z,17.55
2023-07-04T03:48:18.204Z,18.83
2023-07-04T03:50:46.124Z,18.85
2023-07-04T03:53:13.342Z,19.23
2023-07-04T03:55:41.081Z,21.13
2023-07-04T03:58:08.284Z,21.05
2023-07-04T04:00:36.116Z,18.33
2023-07-04T04:03:03.542Z,20.77
2023-07-04T04:05:31.016Z,21.58
2023-07-04T04:07:58.379Z,21.17
2023-07-04T04:10:25.541Z,22.90
2023-07-04T04:12:52.967Z,22.05
2023-07-04T04:15:20.157Z,24.23
2023-07-04T04:17:49.278Z,21.70
2023-07-04T04:20:16.466Z,18.23
2023-07-04T04:22:46.845Z,17.90
2023-07-04T04:25:15.671Z,16.38
2023-07-04T04:27:44.870Z,16.75
2023-07-04T04:30:13.584Z,15.30
2023-07-04T04:32:42.387Z,14.80
2023-07-04T04:35:09.976Z,13.95
2023-07-04T04:37:41.444Z,15.95
2023-07-04T04:40:09.737Z,15.38
2023-07-04T04:42:37.111Z,13.57
2023-07-04T04:45:05.674Z,12.65
2023-07-04T04:47:35.804Z,11.32
2023-07-04T04:50:03.684Z,11.85
2023-07-04T04:52:34.590Z,13.85
2023-07-04T04:55:05.008Z,12.13
2023-07-04T04:57:32.255Z,11.82
2023-07-04T05:00:02.282Z,12.30
2023-07-04T05:02:30.603Z,12.00
2023-07-04T05:05:00.182Z,14.88
2023-07-04T05:07:28.207Z,13.98
2023-07-04T05:09:59.283Z,13.13
2023-07-04T05:12:26.834Z,14.20
2023-07-04T05:14:54.958Z,12.23
2023-07-04T05:17:23.180Z,12.27
2023-07-04T05:19:51.154Z,12.77
2023-07-04T05:22:19.229Z,12.35
2023-07-04T05:24:46.681Z,11.25
2023-07-04T05:27:13.985Z,11.38
2023-07-04T05:29:41.268Z,11.48
2023-07-04T05:32:09.456Z,11.48
2023-07-04T05:34:36.936Z,10.77
2023-07-04T05:37:04.781Z,10.88
2023-07-04T05:39:33.119Z,10.63
2023-07-04T05:42:00.287Z,9.23
2023-07-04T05:44:27.758Z,10.25
2023-07-04T05:46:55.556Z,10.00
2023-07-04T05:49:22.770Z,10.07
2023-07-04T05:51:50.034Z,10.15
2023-07-04T05:54:17.240Z,10.75
2023-07-04T05:56:44.545Z,10.00
2023-07-04T05:59:11.864Z,10.10
2023-07-04T06:01:41.571Z,10.15
2023-07-04T06:04:09.424Z,10.30
2023-07-04T06:07:03.794Z,9.05
2023-07-04T06:09:33.961Z,9.70
2023-07-04T06:12:01.112Z,9.77
2023-07-04T06:14:28.964Z,9.05
2023-07-04T06:16:57.097Z,9.90
2023-07-04T06:19:25.052Z,10.20
2023-07-04T06:21:52.860Z,9.23
2023-07-04T06:24:21.330Z,10.10
2023-07-04T06:26:48.877Z,9.27
2023-07-04T06:29:16.291Z,10.52
2023-07-04T06:31:44.625Z,10.20
2023-07-04T06:34:13.043Z,8.18
2023-07-04T06:36:42.111Z,9.32
2023-07-04T06:39:09.538Z,10.35
2023-07-04T06:41:37.044Z,10.88
2023-07-04T06:44:05.890Z,13.63
2023-07-04T06:49:01.117Z,12.70
2023-07-04T06:51:32.132Z,12.82
2023-07-04T06:54:01.251Z,11.27
2023-07-04T06:56:28.579Z,11.32
2023-07-04T06:58:56.355Z,12.00
2023-07-04T07:01:29.344Z,11.85
2023-07-04T07:03:57.511Z,11.45
2023-07-04T07:06:26.414Z,9.73
2023-07-04T07:08:54.408Z,10.02
2023-07-04T07:11:22.926Z,9.85
2023-07-04T07:13:51.592Z,9.07
2023-07-04T07:16:25.165Z,9.18
2023-07-04T07:18:53.644Z,8.60
2023-07-04T07:21:25.252Z,8.05
2023-07-04T07:23:57.267Z,8.65
2023-07-04T07:26:27.116Z,9.00
2023-07-04T07:28:55.530Z,9.50
2023-07-04T07:33:55.697Z,10.10
2023-07-04T07:36:47.697Z,8.45
2023-07-04T07:39:16.664Z,9.02
2023-07-04T07:41:46.790Z,9.20
2023-07-04T07:44:15.134Z,8.98
2023-07-04T07:46:43.204Z,9.00
2023-07-04T07:49:10.573Z,8.88
2023-07-04T07:51:38.795Z,8.05
2023-07-04T07:54:09.613Z,7.88
2023-07-04T07:56:43.128Z,8.77
2023-07-04T07:59:10.537Z,7.57
2023-07-04T08:01:38.726Z,9.00
2023-07-04T08:04:06.497Z,8.57
2023-07-04T08:06:42.563Z,8.65
2023-07-04T08:09:15.306Z,7.25
2023-07-04T08:11:52.680Z,7.47
2023-07-04T08:14:20.154Z,7.50
2023-07-04T08:16:54.923Z,6.55
2023-07-04T08:19:24.736Z,7.20
2023-07-04T08:21:52.757Z,8.15
2023-07-04T08:24:20.178Z,6.97
2023-07-04T08:26:47.764Z,7.18
2023-07-04T08:29:15.548Z,6.38
2023-07-04T08:31:43.180Z,6.38
2023-07-04T08:34:13.393Z,6.43
2023-07-04T08:36:42.524Z,6.00
2023-07-04T08:39:10.703Z,5.65
2023-07-04T08:41:43.838Z,5.60
2023-07-04T08:44:21.725Z,6.25
2023-07-04T08:46:55.805Z,6.60
2023-07-04T08:49:31.057Z,6.80
2023-07-04T08:52:24.266Z,6.88
2023-07-04T08:54:52.140Z,7.45
2023-07-04T08:57:46.752Z,6.95
2023-07-04T09:00:32.796Z,6.88
2023-07-04T09:03:27.827Z,6.28
2023-07-04T09:06:16.643Z,6.22
2023-07-04T09:09:02.720Z,6.38
2023-07-04T09:11:30.127Z,6.07
2023-07-04T09:13:59.678Z,6.40
2023-07-04T09:16:33.753Z,6.00
2023-07-04T09:19:06.406Z,6.30
2023-07-04T09:21:34.092Z,6.43
2023-07-04T09:24:03.022Z,5.80
2023-07-04T09:26:39.573Z,6.50
2023-07-04T09:29:08.395Z,6.00
2023-07-04T09:31:43.165Z,6.07
2023-07-04T09:34:33.772Z,6.47
2023-07-04T09:37:02.705Z,6.25
2023-07-04T09:39:54.996Z,5.80
2023-07-04T09:42:48.491Z,5.65
2023-07-04T09:45:22.426Z,5.53
2023-07-04T09:47:49.789Z,5.97
2023-07-04T09:50:33.734Z,5.82
2023-07-04T09:53:11.465Z,5.30
2023-07-04T09:55:40.819Z,4.72
2023-07-04T09:58:22.559Z,5.43
2023-07-04T10:01:10.219Z,5.70
2023-07-04T10:03:42.922Z,5.40
2023-07-04T10:06:10.542Z,5.78
2023-07-04T10:08:51.335Z,5.80
2023-07-04T10:11:26.233Z,5.40
2023-07-04T10:14:01.815Z,6.70
2023-07-04T10:16:29.242Z,7.57
2023-07-04T10:19:14.123Z,7.55
2023-07-04T10:21:51.960Z,6.88
2023-07-04T10:24:27.239Z,6.60
2023-07-04T10:26:59.701Z,6.20
2023-07-04T10:29:43.960Z,7.93
2023-07-04T10:32:14.781Z,8.70
2023-07-04T10:34:44.288Z,8.23
2023-07-04T10:37:24.436Z,9.70
2023-07-04T10:39:58.477Z,10.18
2023-07-04T10:42:41.141Z,9.93
2023-07-04T10:45:09.793Z,9.57
2023-07-04T10:47:38.838Z,8.50
2023-07-04T10:50:16.278Z,8.68
2023-07-04T10:52:46.281Z,8.43
2023-07-04T10:55:16.796Z,8.27
2023-07-04T10:57:57.787Z,7.82
2023-07-04T11:00:33.224Z,8.07
2023-07-04T11:03:08.065Z,7.78
2023-07-04T11:05:41.672Z,8.77
2023-07-04T11:08:10.289Z,7.68
2023-07-04T11:10:42.095Z,8.20
2023-07-04T11:13:09.437Z,9.48
2023-07-04T11:15:36.800Z,9.73
2023-07-04T11:18:04.024Z,8.95
2023-07-04T11:20:41.702Z,9.50
2023-07-04T11:23:20.475Z,7.05
2023-07-04T11:25:47.855Z,5.90
2023-07-04T11:28:26.603Z,6.38
2023-07-04T11:31:13.234Z,6.40
2023-07-04T11:33:45.387Z,5.88
2023-07-04T11:36:24.976Z,5.50
2023-07-04T11:38:55.405Z,5.38
2023-07-04T11:41:32.683Z,5.65
2023-07-04T11:44:13.920Z,6.03
2023-07-04T11:46:42.526Z,5.90
2023-07-04T11:49:18.616Z,6.38
2023-07-04T11:51:45.925Z,4.72
2023-07-04T11:54:13.072Z,4.40
2023-07-04T11:56:43.325Z,4.70
2023-07-04T11:59:18.099Z,4.68
2023-07-04T12:01:56.413Z,4.35
2023-07-04T12:04:42.134Z,3.75
2023-07-04T12:07:11.996Z,6.13
2023-07-04T12:09:46.678Z,4.43
2023-07-04T12:12:21.600Z,4.53
2023-07-04T12:14:57.919Z,5.00
2023-07-04T12:17:25.668Z,4.13
2023-07-04T12:20:05.038Z,4.15
2023-07-04T12:22:32.871Z,4.72
2023-07-04T12:25:14.092Z,5.05
2023-07-04T12:27:43.129Z,4.07
2023-07-04T12:30:12.867Z,4.03
2023-07-04T12:32:41.079Z,4.53
2023-07-04T12:37:41.231Z,4.85
2023-07-04T12:40:15.164Z,5.05
2023-07-04T12:42:43.659Z,4.30
2023-07-04T12:45:12.049Z,4.40
2023-07-04T12:47:40.297Z,4.88
2023-07-04T12:50:08.873Z,4.40
2023-07-04T12:52:37.798Z,5.60
2023-07-04T12:55:06.296Z,5.30
2023-07-04T12:57:33.904Z,5.07
2023-07-04T13:00:11.770Z,4.93
2023-07-04T13:02:40.164Z,5.28
2023-07-04T13:05:08.059Z,5.28
2023-07-04T13:07:35.538Z,4.95
2023-07-04T13:10:04.456Z,4.45
2023-07-04T13:12:34.976Z,4.93
2023-07-04T13:15:25.715Z,5.10
2023-07-04T13:18:01.532Z,5.30
2023-07-04T13:20:33.996Z,4.70
2023-07-04T13:25:56.420Z,4.53
2023-07-04T13:33:54.956Z,4.63
2023-07-04T13:36:44.550Z,4.65
2023-07-04T13:41:44.392Z,4.78
2023-07-04T13:46:43.345Z,5.03
2023-07-04T13:49:10.614Z,5.38
2023-07-04T13:51:38.154Z,5.40
2023-07-04T13:54:05.775Z,5.65
2023-07-04T13:56:35.083Z,4.82
2023-07-04T13:59:02.490Z,5.22
2023-07-04T14:06:31.036Z,5.03
2023-07-04T14:08:58.344Z,5.28
2023-07-04T14:11:25.459Z,4.97
2023-07-04T14:14:00.626Z,5.13
2023-07-04T14:19:56.880Z,4.88
2023-07-04T14:21:47.875Z,4.50
2023-07-04T14:24:15.093Z,4.60
2023-07-04T14:26:42.527Z,4.38
2023-07-04T14:29:09.717Z,4.72
2023-07-04T14:31:37.701Z,4.07
2023-07-04T14:34:05.084Z,4.22
2023-07-04T14:36:33.189Z,4.13
2023-07-04T14:39:01.300Z,4.50
2023-07-04T14:44:02.588Z,4.40
2023-07-04T14:46:30.573Z,4.60
2023-07-04T14:48:58.178Z,4.20
2023-07-04T14:51:25.469Z,4.63
2023-07-04T14:53:52.616Z,4.35
2023-07-04T14:56:20.270Z,4.28
2023-07-04T14:58:47.603Z,4.43
2023-07-04T15:01:19.448Z,3.80
2023-07-04T15:03:46.756Z,4.22
2023-07-04T15:06:14.280Z,5.63
2023-07-04T15:08:42.025Z,4.82
2023-07-04T15:11:09.420Z,4.45
2023-07-04T15:13:37.383Z,4.20
2023-07-04T15:16:07.371Z,4.05
2023-07-04T15:18:36.348Z,4.05
2023-07-04T15:21:04.546Z,4.00
2023-07-04T15:23:34.264Z,4.03
2023-07-04T15:26:19.469Z,4.45
2023-07-04T15:28:49.419Z,4.43
2023-07-04T15:31:16.979Z,4.20
2023-07-04T15:33:44.603Z,4.18
2023-07-04T15:36:12.300Z,3.97
2023-07-04T15:38:39.634Z,3.95
2023-07-04T15:41:10.851Z,4.10
2023-07-04T15:43:39.222Z,4.53
2023-07-04T15:46:12.318Z,3.95
2023-07-04T15:48:40.299Z,4.00
2023-07-04T15:51:08.960Z,3.90
2023-07-04T15:53:36.198Z,4.15
2023-07-04T15:56:05.181Z,4.40
2023-07-04T15:58:32.437Z,3.88
2023-07-04T16:01:01.609Z,4.00
2023-07-04T16:03:29.658Z,3.42
2023-07-04T16:05:58.078Z,3.95
2023-07-04T16:08:26.101Z,3.80
2023-07-04T16:10:57.978Z,4.53
2023-07-04T16:13:25.625Z,4.75
2023-07-04T16:15:53.282Z,3.95
2023-07-04T16:18:21.909Z,4.82
2023-07-04T16:20:49.160Z,3.88
2023-07-04T16:23:16.518Z,4.00
2023-07-04T16:25:44.965Z,3.60
2023-07-04T16:28:12.428Z,4.22
2023-07-04T16:30:41.572Z,4.25
2023-07-04T16:33:08.903Z,4.03
2023-07-04T16:35:38.593Z,3.55
2023-07-04T16:38:06.256Z,4.40
2023-07-04T16:40:34.662Z,4.00
2023-07-04T16:43:02.320Z,4.10
2023-07-04T16:45:29.741Z,5.05
2023-07-04T16:47:57.338Z,4.60
2023-07-04T16:50:31.429Z,5.05
2023-07-04T16:53:00.923Z,4.93
2023-07-04T16:55:29.270Z,4.80
2023-07-04T16:57:56.549Z,5.00
2023-07-04T17:00:24.037Z,4.63
2023-07-04T17:02:51.617Z,4.57
2023-07-04T17:05:19.007Z,4.30
2023-07-04T17:07:46.600Z,4.28
2023-07-04T17:10:13.978Z,4.03
2023-07-04T17:12:41.176Z,4.68
2023-07-04T17:15:09.318Z,5.00
2023-07-04T17:17:36.988Z,4.70
2023-07-04T17:20:04.827Z,4.60
2023-07-04T17:22:32.836Z,4.40
2023-07-04T17:25:12.969Z,5.90
2023-07-04T17:27:42.619Z,5.35
2023-07-04T17:30:10.813Z,4.82
2023-07-04T17:32:41.235Z,4.82
2023-07-04T17:35:10.535Z,4.70
2023-07-04T17:37:38.247Z,4.45
2023-07-04T17:40:06.007Z,4.30
2023-07-04T17:42:33.869Z,4.63
2023-07-04T17:45:01.018Z,4.30
2023-07-04T17:47:28.998Z,4.97
2023-07-04T17:49:57.004Z,5.32
2023-07-04T17:52:25.410Z,5.03
2023-07-04T17:54:52.666Z,4.68
2023-07-04T17:57:27.702Z,4.82
2023-07-04T17:59:56.260Z,5.10
2023-07-04T18:02:23.869Z,4.55
2023-07-04T18:04:55.540Z,4.70
2023-07-04T18:07:23.615Z,5.10
2023-07-04T18:09:52.324Z,5.13
2023-07-04T18:12:20.979Z,5.78
2023-07-04T18:14:48.440Z,5.43
2023-07-04T18:17:16.239Z,5.35
2023-07-04T18:19:44.403Z,6.03
2023-07-04T18:22:11.842Z,6.00
2023-07-04T18:24:39.417Z,6.03
2023-07-04T18:27:06.952Z,5.95
2023-07-04T18:29:34.645Z,5.80
2023-07-04T18:32:03.861Z,6.70
2023-07-04T18:34:31.514Z,6.15
2023-07-04T18:36:58.889Z,6.55
2023-07-04T18:39:26.474Z,6.38
2023-07-04T18:41:54.007Z,6.25
2023-07-04T18:44:21.661Z,6.75
2023-07-04T18:46:49.814Z,7.35
2023-07-04T18:49:17.586Z,7.28
2023-07-04T18:51:44.938Z,7.40
2023-07-04T18:54:15.891Z,8.15
2023-07-04T18:56:44.008Z,7.57
2023-07-04T18:59:14.256Z,7.53
2023-07-04T19:01:43.444Z,7.47
2023-07-04T19:04:11.046Z,7.45
2023-07-04T19:06:38.886Z,8.15
2023-07-04T19:09:06.734Z,8.13
2023-07-04T19:11:40.423Z,8.27
2023-07-04T19:14:21.743Z,8.93
2023-07-04T19:16:54.287Z,9.00
2023-07-04T19:19:32.973Z,8.88
2023-07-04T19:22:05.695Z,8.88
2023-07-04T19:24:36.746Z,9.05
2023-07-04T19:27:04.053Z,9.00
2023-07-04T19:29:33.163Z,9.10
2023-07-04T19:32:01.138Z,9.75
2023-07-04T19:34:30.496Z,9.43
2023-07-04T19:36:58.641Z,9.75
2023-07-04T19:39:26.412Z,9.27
2023-07-04T19:41:53.603Z,8.45
2023-07-04T19:44:20.929Z,9.05
2023-07-04T19:46:48.152Z,8.88
2023-07-04T19:49:23.901Z,9.05
2023-07-04T19:51:56.185Z,8.73
2023-07-04T19:54:28.687Z,9.55
2023-07-04T19:56:57.533Z,9.32
2023-07-04T19:59:36.397Z,9.35
2023-07-04T20:02:14.249Z,8.68
2023-07-04T20:04:54.636Z,9.50
2023-07-04T20:07:41.803Z,9.50
2023-07-04T20:10:21.246Z,9.73
2023-07-04T20:13:02.642Z,9.40
2023-07-04T20:15:40.700Z,9.43
2023-07-04T20:18:08.589Z,10.05
2023-07-04T20:23:09.400Z,9.77
2023-07-04T20:25:47.008Z,9.70
2023-07-04T20:28:23.605Z,9.27
2023-07-04T20:31:00.790Z,10.38
2023-07-04T20:36:01.794Z,9.75
2023-07-04T20:38:29.316Z,9.82
2023-07-04T20:41:01.823Z,10.40
2023-07-04T20:43:29.143Z,10.73
2023-07-04T20:45:56.680Z,10.13
2023-07-04T20:48:24.395Z,10.43
2023-07-04T20:50:53.336Z,10.75
2023-07-04T20:53:21.922Z,10.93
2023-07-04T20:55:49.842Z,10.25
2023-07-04T20:58:18.311Z,10.57
2023-07-04T21:00:47.405Z,10.10
2023-07-04T21:03:14.800Z,10.32
2023-07-04T21:05:42.317Z,10.15
2023-07-04T21:08:09.721Z,10.90
2023-07-04T21:10:38.877Z,10.43
2023-07-04T21:13:07.032Z,10.27
2023-07-04T21:15:35.002Z,10.13
2023-07-04T21:18:02.474Z,10.13
2023-07-04T21:20:30.243Z,10.90
2023-07-04T21:22:57.569Z,10.63
2023-07-04T21:25:24.832Z,10.77
2023-07-04T21:27:52.754Z,11.50
2023-07-04T21:30:20.073Z,10.68
2023-07-04T21:32:48.126Z,10.77
2023-07-04T21:35:15.611Z,11.10
2023-07-04T21:37:43.151Z,11.23
2023-07-04T21:40:11.000Z,10.98
2023-07-04T21:42:38.661Z,11.10
2023-07-04T21:45:07.306Z,11.00
2023-07-04T21:47:42.910Z,11.30
2023-07-04T21:50:12.135Z,11.45
2023-07-04T21:52:40.880Z,11.57
2023-07-04T21:55:10.844Z,11.27
2023-07-04T21:57:40.474Z,12.30
2023-07-04T22:00:09.178Z,11.48
2023-07-04T22:02:36.705Z,11.45
2023-07-04T22:05:04.390Z,10.25
2023-07-04T22:07:32.158Z,11.50
2023-07-04T22:09:59.857Z,10.60
2023-07-04T22:12:27.155Z,11.48
2023-07-04T22:14:54.480Z,11.55
2023-07-04T22:17:21.693Z,11.10
2023-07-04T22:19:48.875Z,11.30
2023-07-04T22:22:16.160Z,11.32
2023-07-04T22:24:44.378Z,11.95
2023-07-04T22:27:11.645Z,11.95
2023-07-04T22:29:38.760Z,12.18
2023-07-04T22:32:07.476Z,12.68
2023-07-04T22:34:34.719Z,12.25
2023-07-04T22:37:02.120Z,12.18
2023-07-04T22:39:29.842Z,12.90
2023-07-04T22:42:02.557Z,11.85
2023-07-04T22:44:30.376Z,12.15
2023-07-04T22:46:57.731Z,11.88
2023-07-04T22:49:25.061Z,12.25
2023-07-04T22:51:52.573Z,12.10
2023-07-04T22:54:19.754Z,12.27
2023-07-04T22:56:48.122Z,10.93
2023-07-04T22:59:15.389Z,12.20
2023-07-04T23:01:42.949Z,12.65
2023-07-04T23:04:10.386Z,11.70
2023-07-04T23:06:38.669Z,11.77
2023-07-04T23:09:09.065Z,11.00
2023-07-04T23:11:36.502Z,11.27
2023-07-04T23:14:03.928Z,10.90
2023-07-04T23:16:32.242Z,10.95
2023-07-04T23:19:00.347Z,11.20
2023-07-04T23:21:27.664Z,10.60
2023-07-04T23:23:55.069Z,11.18
2023-07-04T23:26:26.494Z,11.05
2023-07-04T23:28:54.317Z,10.57
2023-07-04T23:31:22.248Z,10.50
2023-07-04T23:33:51.031Z,10.68
2023-07-04T23:36:19.211Z,9.82
2023-07-04T23:38:50.255Z,10.52
2023-07-04T23:41:20.583Z,10.40
2023-07-04T23:43:48.764Z,10.50
2023-07-04T23:46:15.988Z,9.95
2023-07-04T23:48:43.261Z,9.63
2023-07-04T23:51:10.687Z,10.18
2023-07-04T23:53:38.952Z,10.32
2023-07-04T23:56:06.099Z,10.70
2023-07-04T23:58:33.890Z,10.45
